Time;durP1;ratioP1;P1;durP2;ratioP2;P2;SDS_P1;SDS_P2;PMS_P1;PMS_P2;Temp;Humidity;BMP_temperature;BMP_pressure;BME280_temperature;BME280_humidity;BME280_pressure;Samples;Min_cycle;Max_cycle;Signal;HPM_P1;HPM_P2
2023/04/18 00:01:13;;;;;;;13.18;7.50;;;8.30;97.40;;;;;;5071536;28;20377;-62
2023/04/18 00:03:39;;;;;;;11.98;7.10;;;8.30;97.20;;;;;;5071172;28;20029;-62
2023/04/18 00:06:05;;;;;;;12.73;6.93;;;8.20;97.40;;;;;;5074299;28;20052;-62
2023/04/18 00:08:32;;;;;;;11.35;7.10;;;8.20;97.60;;;;;;5074401;28;20048;-62
2023/04/18 00:10:57;;;;;;;12.40;6.80;;;8.10;97.50;;;;;;5075345;28;20447;-62
2023/04/18 00:13:23;;;;;;;13.32;7.25;;;8.10;97.20;;;;;;5074066;28;20095;-62
2023/04/18 00:15:48;;;;;;;11.75;7.47;;;8.10;97.10;;;;;;5074158;28;20028;-62
2023/04/18 00:18:16;;;;;;;12.70;7.63;;;8.00;96.90;;;;;;5074995;28;20095;-63
2023/04/18 00:20:41;;;;;;;12.98;7.25;;;8.00;97.00;;;;;;5074952;28;20032;-62
2023/04/18 00:23:07;;;;;;;11.45;6.78;;;8.00;97.10;;;;;;5074487;28;20029;-62
2023/04/18 00:25:32;;;;;;;11.68;6.80;;;7.90;96.90;;;;;;5073409;28;20086;-62
2023/04/18 00:27:58;;;;;;;13.32;7.22;;;7.90;97.00;;;;;;5075112;28;20067;-62
2023/04/18 00:30:24;;;;;;;9.98;7.13;;;7.80;96.70;;;;;;5074245;28;20492;-62
2023/04/18 00:32:49;;;;;;;9.98;6.55;;;7.80;97.00;;;;;;5073319;28;20074;-62
2023/04/18 00:35:15;;;;;;;10.55;7.00;;;7.80;96.80;;;;;;5072950;28;20040;-62
2023/04/18 00:37:40;;;;;;;15.38;8.40;;;7.70;96.90;;;;;;5074373;28;20039;-62
2023/04/18 00:40:08;;;;;;;12.80;7.70;;;7.60;96.90;;;;;;5073367;28;20098;-62
2023/04/18 00:42:33;;;;;;;13.77;7.47;;;7.60;97.10;;;;;;5073884;28;20099;-62
2023/04/18 00:44:59;;;;;;;11.93;7.88;;;7.60;97.40;;;;;;5074681;28;20059;-62
2023/04/18 00:47:24;;;;;;;12.95;7.22;;;7.60;97.20;;;;;;5074619;28;20028;-62
2023/04/18 00:49:50;;;;;;;16.17;7.53;;;7.50;97.20;;;;;;5073521;28;20092;-62
2023/04/18 00:52:17;;;;;;;12.02;7.47;;;7.50;97.00;;;;;;5074558;28;20491;-62
2023/04/18 00:54:43;;;;;;;13.30;7.78;;;7.40;96.90;;;;;;5074121;28;20154;-62
2023/04/18 00:57:10;;;;;;;11.98;7.25;;;7.40;96.80;;;;;;5073789;28;20043;-62
2023/04/18 00:59:36;;;;;;;10.52;6.22;;;7.40;96.90;;;;;;5074066;28;20125;-62
2023/04/18 01:02:02;;;;;;;12.10;7.55;;;7.40;97.00;;;;;;5074491;28;20036;-62
2023/04/18 01:04:28;;;;;;;15.18;7.88;;;7.30;96.80;;;;;;5073502;28;20099;-62
2023/04/18 01:06:54;;;;;;;11.45;6.72;;;7.40;96.80;;;;;;5074224;28;20494;-62
2023/04/18 01:09:21;;;;;;;11.77;6.95;;;7.30;96.90;;;;;;5074520;28;20016;-62
2023/04/18 01:11:46;;;;;;;11.07;7.30;;;7.30;97.00;;;;;;5073640;28;20572;-62
2023/04/18 01:14:12;;;;;;;12.50;7.30;;;7.20;97.00;;;;;;5106889;28;20106;-62
2023/04/18 01:16:37;;;;;;;15.43;7.50;;;7.20;97.20;;;;;;5073343;28;20032;-62
2023/04/18 01:19:04;;;;;;;13.23;7.40;;;7.20;97.30;;;;;;5073415;28;20548;-62
2023/04/18 01:21:32;;;;;;;11.60;6.88;;;7.10;97.40;;;;;;5073867;28;20029;-62
2023/04/18 01:24:11;;;;;;;11.90;7.03;;;7.10;97.50;;;;;;5074095;28;20508;-62
2023/04/18 01:26:37;;;;;;;13.35;7.80;;;7.00;97.40;;;;;;5073251;28;20020;-62
2023/04/18 01:29:03;;;;;;;12.07;6.82;;;7.00;97.60;;;;;;5073811;28;20074;-62
2023/04/18 01:31:28;;;;;;;13.90;7.45;;;7.00;97.80;;;;;;5072980;28;20017;-62
2023/04/18 01:33:54;;;;;;;11.57;7.53;;;6.90;97.90;;;;;;5072505;28;20291;-62
2023/04/18 01:36:20;;;;;;;13.13;6.72;;;6.90;97.90;;;;;;5072310;28;20024;-62
2023/04/18 01:38:46;;;;;;;11.50;6.75;;;6.90;98.10;;;;;;5072402;28;20032;-62
2023/04/18 01:41:11;;;;;;;13.23;7.50;;;6.90;98.30;;;;;;5073534;28;20025;-62
2023/04/18 01:43:37;;;;;;;11.18;6.93;;;6.80;98.30;;;;;;5071394;28;20028;-62
2023/04/18 01:46:02;;;;;;;10.68;6.60;;;6.80;98.70;;;;;;5073310;28;20021;-62
2023/04/18 01:48:28;;;;;;;11.15;7.10;;;6.70;98.40;;;;;;5072818;28;20373;-63
2023/04/18 01:50:54;;;;;;;10.93;7.10;;;6.70;98.60;;;;;;5073493;28;20016;-63
2023/04/18 01:53:19;;;;;;;13.65;7.30;;;6.60;98.70;;;;;;5072740;28;20020;-63
2023/04/18 01:55:47;;;;;;;12.95;7.80;;;6.60;98.80;;;;;;5072952;28;20029;-64
2023/04/18 01:58:15;;;;;;;14.13;7.00;;;6.50;98.90;;;;;;5073146;28;20103;-63
2023/04/18 02:00:40;;;;;;;10.80;7.05;;;6.50;99.20;;;;;;5071141;28;20052;-63
2023/04/18 02:03:06;;;;;;;13.90;7.68;;;6.40;99.30;;;;;;5073193;28;20428;-63
2023/04/18 02:05:31;;;;;;;12.18;6.50;;;6.40;99.50;;;;;;5072708;28;20117;-63
2023/04/18 02:07:58;;;;;;;14.60;8.43;;;6.40;99.70;;;;;;5072428;28;20112;-63
2023/04/18 02:10:23;;;;;;;11.00;7.15;;;6.40;99.70;;;;;;5073047;28;20043;-63
2023/04/18 02:12:49;;;;;;;14.05;7.15;;;6.30;99.80;;;;;;5073046;28;20408;-63
2023/04/18 02:15:15;;;;;;;13.70;7.47;;;6.30;99.90;;;;;;5072580;28;20028;-63
2023/04/18 02:17:40;;;;;;;12.93;7.30;;;6.30;99.90;;;;;;5072746;28;20032;-63
2023/04/18 02:20:08;;;;;;;9.70;6.30;;;6.30;99.90;;;;;;5072946;28;20020;-63
2023/04/18 02:22:35;;;;;;;11.82;7.10;;;6.20;99.90;;;;;;5072066;28;20056;-63
2023/04/18 02:25:01;;;;;;;12.98;7.40;;;6.20;99.90;;;;;;5071557;28;20017;-63
2023/04/18 02:27:26;;;;;;;12.05;7.30;;;6.20;99.90;;;;;;5070560;28;20028;-63
2023/04/18 02:29:52;;;;;;;12.85;7.72;;;6.20;99.90;;;;;;5071825;28;20104;-63
2023/04/18 02:32:17;;;;;;;14.95;7.47;;;6.10;99.90;;;;;;5072737;28;20469;-64
2023/04/18 02:34:43;;;;;;;13.07;7.18;;;6.10;99.90;;;;;;5071961;28;20437;-63
2023/04/18 02:37:08;;;;;;;15.38;7.43;;;6.10;99.90;;;;;;5072542;28;20028;-63
2023/04/18 02:39:34;;;;;;;12.80;7.53;;;6.10;99.90;;;;;;5072067;28;20029;-62
2023/04/18 02:42:00;;;;;;;14.05;7.90;;;6.00;99.90;;;;;;5071828;28;20082;-62
2023/04/18 02:44:26;;;;;;;13.05;7.45;;;6.00;99.90;;;;;;5072416;28;20028;-62
2023/04/18 02:46:52;;;;;;;11.77;6.88;;;6.00;99.90;;;;;;5072320;28;20020;-63
2023/04/18 02:49:17;;;;;;;12.30;7.93;;;6.00;99.90;;;;;;5071780;28;20020;-62
2023/04/18 02:51:43;;;;;;;13.57;7.97;;;6.00;99.90;;;;;;5071927;28;20107;-63
2023/04/18 02:54:09;;;;;;;12.02;7.25;;;6.00;99.90;;;;;;5054496;28;20028;-62
2023/04/18 02:56:38;;;;;;;13.55;7.30;;;6.00;99.90;;;;;;5071327;28;20036;-63
2023/04/18 02:59:05;;;;;;;11.88;7.65;;;5.90;99.90;;;;;;5072238;28;20047;-62
2023/04/18 03:01:31;;;;;;;13.52;7.57;;;6.00;99.90;;;;;;5071980;28;20036;-62
2023/04/18 03:03:57;;;;;;;13.80;7.75;;;5.90;99.90;;;;;;5070130;28;20031;-63
2023/04/18 03:06:22;;;;;;;12.02;6.80;;;5.90;99.90;;;;;;5071969;28;20139;-62
2023/04/18 03:08:48;;;;;;;13.35;7.53;;;5.90;99.90;;;;;;5070448;28;20428;-62
2023/04/18 03:11:14;;;;;;;13.55;8.05;;;6.00;99.90;;;;;;5071459;28;20061;-62
2023/04/18 03:13:39;;;;;;;14.30;8.13;;;6.10;99.90;;;;;;5072011;28;20024;-62
2023/04/18 03:16:05;;;;;;;16.45;7.47;;;6.10;99.90;;;;;;5072104;28;20036;-63
2023/04/18 03:18:31;;;;;;;15.10;8.00;;;6.20;99.90;;;;;;5071157;28;20499;-63
2023/04/18 03:20:56;;;;;;;15.35;8.68;;;6.30;99.90;;;;;;5072174;28;20059;-62
2023/04/18 03:23:22;;;;;;;18.48;8.93;;;6.30;99.90;;;;;;5070741;28;20021;-63
2023/04/18 03:25:48;;;;;;;17.65;8.10;;;6.40;99.90;;;;;;5071631;28;20021;-63
2023/04/18 03:28:13;;;;;;;14.13;8.18;;;6.50;99.90;;;;;;5071745;28;20031;-63
2023/04/18 03:30:39;;;;;;;15.60;7.80;;;6.50;99.90;;;;;;5070675;28;20031;-63
2023/04/18 03:33:04;;;;;;;15.35;8.43;;;6.50;99.90;;;;;;5071589;28;20487;-62
2023/04/18 03:35:30;;;;;;;13.27;8.18;;;6.60;99.90;;;;;;5053947;28;20020;-63
2023/04/18 03:37:56;;;;;;;14.38;8.35;;;6.60;99.90;;;;;;5071479;28;20469;-63
2023/04/18 03:40:21;;;;;;;14.07;8.45;;;6.60;99.90;;;;;;5075667;28;20500;-63
2023/04/18 03:42:47;;;;;;;12.98;8.15;;;6.60;99.90;;;;;;5075884;28;20074;-63
2023/04/18 03:45:12;;;;;;;12.63;7.93;;;6.70;99.90;;;;;;5075321;28;20078;-63
2023/04/18 03:47:38;;;;;;;15.98;8.60;;;6.70;99.90;;;;;;5075643;28;20020;-63
2023/04/18 03:50:04;;;;;;;14.32;8.73;;;6.70;99.90;;;;;;5075756;28;20024;-63
2023/04/18 03:52:30;;;;;;;12.20;7.85;;;6.70;99.90;;;;;;5073596;28;20031;-63
2023/04/18 03:54:55;;;;;;;14.38;8.75;;;6.70;99.90;;;;;;5075738;28;20024;-63
2023/04/18 03:57:21;;;;;;;13.70;8.48;;;6.80;99.90;;;;;;5075766;28;20078;-63
2023/04/18 03:59:47;;;;;;;11.57;7.82;;;6.80;99.90;;;;;;5074885;28;20373;-63
2023/04/18 04:02:12;;;;;;;13.00;8.05;;;6.80;99.90;;;;;;5074389;28;20029;-63
2023/04/18 04:04:38;;;;;;;19.60;8.82;;;6.90;99.90;;;;;;5092901;28;20044;-62
2023/04/18 04:07:03;;;;;;;16.98;8.77;;;6.80;99.90;;;;;;5095030;28;20721;-63
2023/04/18 04:09:29;;;;;;;11.30;7.70;;;6.90;99.90;;;;;;5093894;28;20020;-63
2023/04/18 04:11:55;;;;;;;13.55;8.63;;;6.90;99.90;;;;;;5094149;28;20024;-63
2023/04/18 04:14:21;;;;;;;15.52;9.40;;;6.90;99.90;;;;;;5093765;28;20114;-62
2023/04/18 04:16:47;;;;;;;12.77;7.95;;;6.90;99.90;;;;;;5095067;28;20488;-62
2023/04/18 04:19:13;;;;;;;19.45;9.23;;;6.90;99.90;;;;;;5095292;28;20085;-63
2023/04/18 04:21:39;;;;;;;14.88;8.68;;;6.90;99.90;;;;;;5094540;28;20026;-63
2023/04/18 04:24:05;;;;;;;13.15;8.23;;;6.90;99.90;;;;;;5094052;28;20028;-62
2023/04/18 04:26:33;;;;;;;14.30;8.25;;;7.00;99.90;;;;;;5095092;28;20491;-63
2023/04/18 04:28:58;;;;;;;14.65;8.32;;;7.00;99.90;;;;;;5093672;28;20020;-63
2023/04/18 04:31:24;;;;;;;14.98;8.90;;;7.00;99.90;;;;;;5095360;28;20109;-63
2023/04/18 04:33:49;;;;;;;13.13;7.82;;;7.00;99.90;;;;;;5095035;28;20031;-63
2023/04/18 04:36:15;;;;;;;17.90;9.23;;;6.90;99.90;;;;;;5094540;28;20042;-63
2023/04/18 04:38:43;;;;;;;15.15;8.98;;;6.90;99.90;;;;;;5094679;28;20119;-63
2023/04/18 04:41:08;;;;;;;17.88;10.38;;;6.90;99.90;;;;;;5095337;28;20023;-63
2023/04/18 04:43:34;;;;;;;13.90;8.13;;;6.80;99.90;;;;;;5093959;28;20024;-63
2023/04/18 04:46:02;;;;;;;14.68;8.40;;;6.80;99.90;;;;;;5095118;28;20058;-63
2023/04/18 04:48:28;;;;;;;17.25;9.18;;;6.90;99.90;;;;;;5077564;28;20638;-61
2023/04/18 04:50:56;;;;;;;14.50;8.90;;;6.90;99.90;;;;;;5122652;27;20039;-61
2023/04/18 04:53:22;;;;;;;13.27;8.43;;;6.90;99.90;;;;;;5086670;28;20029;-62
2023/04/18 04:55:49;;;;;;;15.57;8.27;;;6.90;99.90;;;;;;5076351;28;20024;-62
2023/04/18 04:58:15;;;;;;;17.52;9.05;;;6.90;99.90;;;;;;5094674;28;20469;-63
2023/04/18 05:00:40;;;;;;;13.32;8.15;;;6.90;99.90;;;;;;5094480;28;20144;-62
2023/04/18 05:03:06;;;;;;;14.85;9.43;;;6.90;99.90;;;;;;5093263;28;20105;-63
2023/04/18 05:05:32;;;;;;;14.27;8.43;;;6.90;99.90;;;;;;5091991;28;20272;-63
2023/04/18 05:07:58;;;;;;;15.52;8.20;;;6.90;99.90;;;;;;5092303;28;20111;-63
2023/04/18 05:10:24;;;;;;;14.13;8.43;;;6.90;99.90;;;;;;5092762;28;20455;-64
2023/04/18 05:12:49;;;;;;;15.48;8.98;;;7.00;99.90;;;;;;5092896;28;20028;-63
2023/04/18 05:15:15;;;;;;;13.90;8.70;;;7.00;99.90;;;;;;5092677;28;20013;-63
2023/04/18 05:17:41;;;;;;;14.13;8.43;;;7.00;99.90;;;;;;5093976;28;20064;-63
2023/04/18 05:20:08;;;;;;;14.65;9.07;;;7.00;99.90;;;;;;5094526;28;20431;-63
2023/04/18 05:22:33;;;;;;;17.98;8.60;;;7.00;99.90;;;;;;5094032;28;20024;-63
2023/04/18 05:24:59;;;;;;;13.23;8.30;;;7.10;99.90;;;;;;5093538;28;20073;-64
2023/04/18 05:27:25;;;;;;;14.20;7.50;;;7.10;99.90;;;;;;5094356;28;20037;-64
2023/04/18 05:29:51;;;;;;;12.38;8.00;;;7.10;99.90;;;;;;5092621;28;20107;-63
2023/04/18 05:32:17;;;;;;;16.02;9.23;;;7.20;99.90;;;;;;5093451;28;20098;-63
2023/04/18 05:34:43;;;;;;;14.93;8.48;;;7.20;99.90;;;;;;5093990;28;20511;-63
2023/04/18 05:37:08;;;;;;;14.52;8.25;;;7.20;99.90;;;;;;5093578;28;20122;-63
2023/04/18 05:39:34;;;;;;;13.27;7.60;;;7.30;99.90;;;;;;5093162;28;20384;-64
2023/04/18 05:42:01;;;;;;;15.13;8.57;;;7.30;99.90;;;;;;5093980;28;20100;-64
2023/04/18 05:44:28;;;;;;;14.07;8.23;;;7.40;99.90;;;;;;5093545;28;20024;-62
2023/04/18 05:46:53;;;;;;;14.43;7.85;;;7.40;99.90;;;;;;5093213;28;20456;-63
2023/04/18 05:49:19;;;;;;;15.95;8.88;;;7.40;99.90;;;;;;5093777;28;20019;-63
2023/04/18 05:51:45;;;;;;;13.23;8.25;;;7.40;99.90;;;;;;5092774;28;20024;-63
2023/04/18 05:54:11;;;;;;;13.60;8.07;;;7.50;99.90;;;;;;5093555;28;20018;-64
2023/04/18 05:56:37;;;;;;;12.95;7.75;;;7.50;99.90;;;;;;5091914;28;20464;-63
2023/04/18 05:59:03;;;;;;;11.10;7.00;;;7.60;99.90;;;;;;5091471;28;20020;-63
2023/04/18 06:01:29;;;;;;;14.82;8.63;;;7.60;99.90;;;;;;5093445;28;20483;-62
2023/04/18 06:03:54;;;;;;;12.18;7.38;;;7.60;99.90;;;;;;5093371;28;20089;-64
2023/04/18 06:06:20;;;;;;;13.23;8.48;;;7.70;99.90;;;;;;5091319;28;20369;-63
2023/04/18 06:08:46;;;;;;;13.70;8.20;;;7.70;99.90;;;;;;5091558;28;20516;-64
2023/04/18 06:11:14;;;;;;;13.25;7.80;;;7.70;99.90;;;;;;5093535;28;20031;-64
2023/04/18 06:13:40;;;;;;;13.25;7.43;;;7.80;99.90;;;;;;5092313;28;20380;-63
2023/04/18 06:16:06;;;;;;;12.27;7.53;;;7.80;99.90;;;;;;5092039;28;20486;-64
2023/04/18 06:18:31;;;;;;;14.07;7.80;;;7.90;99.90;;;;;;5091620;28;20020;-64
2023/04/18 06:20:57;;;;;;;14.80;8.23;;;7.90;99.90;;;;;;5092792;28;20027;-63
2023/04/18 06:23:23;;;;;;;12.75;7.45;;;7.90;99.90;;;;;;5093207;28;20511;-63
2023/04/18 06:25:48;;;;;;;11.80;6.90;;;8.00;99.90;;;;;;5092655;28;20020;-63
2023/04/18 06:28:14;;;;;;;15.70;9.23;;;8.10;99.90;;;;;;5092279;28;20104;-64
2023/04/18 06:30:40;;;;;;;12.30;7.03;;;8.10;99.90;;;;;;5092712;28;20376;-63
2023/04/18 06:33:09;;;;;;;11.90;6.88;;;8.20;99.90;;;;;;5092891;28;20437;-62
2023/04/18 06:35:35;;;;;;;10.77;6.85;;;8.20;99.90;;;;;;5092010;28;20387;-63
2023/04/18 06:38:01;;;;;;;10.48;6.82;;;8.20;99.90;;;;;;5092674;28;20114;-64
2023/04/18 06:40:26;;;;;;;12.07;6.93;;;8.20;99.90;;;;;;5092543;28;20063;-62
2023/04/18 06:42:52;;;;;;;13.73;7.72;;;8.20;99.90;;;;;;5092078;28;20520;-61
2023/04/18 06:45:18;;;;;;;12.90;7.10;;;8.30;99.90;;;;;;5091436;28;20027;-64
2023/04/18 06:47:44;;;;;;;14.10;6.88;;;8.30;99.90;;;;;;5081362;28;20024;-61
2023/04/18 06:50:10;;;;;;;10.40;6.53;;;8.30;99.90;;;;;;5089559;28;20051;-62
2023/04/18 06:52:39;;;;;;;14.10;6.18;;;8.40;99.90;;;;;;5090163;28;20017;-63
2023/04/18 06:55:06;;;;;;;10.43;6.47;;;8.60;99.90;;;;;;5090765;28;20042;-62
2023/04/18 06:57:31;;;;;;;11.30;6.47;;;8.60;99.90;;;;;;5091280;28;20131;-62
2023/04/18 06:59:57;;;;;;;10.85;6.78;;;8.70;99.90;;;;;;5091848;28;20039;-62
2023/04/18 07:02:23;;;;;;;9.52;6.05;;;8.80;99.90;;;;;;5090171;28;20067;-61
2023/04/18 07:04:49;;;;;;;9.48;6.35;;;8.80;99.90;;;;;;5090833;28;20028;-62
2023/04/18 07:07:14;;;;;;;11.40;7.00;;;8.80;99.90;;;;;;5091316;28;20028;-62
2023/04/18 07:09:40;;;;;;;10.68;6.22;;;8.80;99.90;;;;;;5090380;28;20016;-62
2023/04/18 07:12:06;;;;;;;13.23;7.57;;;8.90;99.90;;;;;;5091414;28;20032;-62
2023/04/18 07:14:31;;;;;;;11.02;6.55;;;9.00;99.90;;;;;;5090471;28;20048;-61
2023/04/18 07:16:57;;;;;;;12.05;6.68;;;9.00;99.90;;;;;;5090350;28;20028;-64
2023/04/18 07:19:23;;;;;;;10.75;6.53;;;8.90;99.90;;;;;;5091313;28;20042;-61
2023/04/18 07:21:48;;;;;;;9.95;6.72;;;8.90;99.90;;;;;;5091074;28;20023;-63
2023/04/18 07:24:14;;;;;;;10.20;6.18;;;8.90;99.90;;;;;;5090957;28;20035;-63
2023/04/18 07:26:40;;;;;;;12.80;6.35;;;8.80;99.90;;;;;;5091167;28;20372;-63
2023/04/18 07:29:05;;;;;;;12.70;6.63;;;8.80;99.90;;;;;;5091791;28;20165;-62
2023/04/18 07:31:31;;;;;;;12.98;7.07;;;8.80;99.90;;;;;;5090595;28;20115;-64
2023/04/18 07:33:57;;;;;;;11.88;6.63;;;8.80;99.90;;;;;;5091697;28;20056;-62
2023/04/18 07:36:23;;;;;;;10.18;6.05;;;8.80;99.90;;;;;;5088943;28;20495;-62
2023/04/18 07:38:48;;;;;;;10.93;6.30;;;8.90;99.90;;;;;;5089615;28;20521;-63
2023/04/18 07:41:14;;;;;;;11.90;6.35;;;8.90;99.90;;;;;;5090916;28;20025;-62
2023/04/18 07:43:40;;;;;;;12.52;7.25;;;9.00;99.90;;;;;;5090846;28;20031;-63
2023/04/18 07:46:06;;;;;;;11.88;6.60;;;9.20;99.90;;;;;;5090339;28;20400;-62
2023/04/18 07:48:32;;;;;;;11.15;6.55;;;9.40;99.90;;;;;;5090647;28;20059;-62
2023/04/18 07:50:58;;;;;;;10.40;6.30;;;9.50;99.90;;;;;;5090585;28;20125;-63
2023/04/18 07:53:24;;;;;;;10.27;6.20;;;9.60;99.90;;;;;;5090525;28;20032;-62
2023/04/18 07:55:49;;;;;;;10.95;5.75;;;9.60;99.90;;;;;;5090706;28;20024;-63
2023/04/18 07:58:15;;;;;;;10.45;6.05;;;9.70;99.90;;;;;;5088570;28;20112;-62
2023/04/18 08:00:43;;;;;;;10.52;6.47;;;9.80;99.90;;;;;;5090820;28;20081;-62
2023/04/18 08:03:10;;;;;;;9.43;5.97;;;9.80;99.90;;;;;;5091014;28;20453;-63
2023/04/18 08:05:40;;;;;;;9.00;5.22;;;9.80;99.90;;;;;;5089078;28;20036;-64
2023/04/18 08:08:07;;;;;;;10.77;5.53;;;9.90;99.90;;;;;;5089125;28;20038;-63
2023/04/18 08:10:33;;;;;;;11.07;5.63;;;10.00;99.90;;;;;;5090507;28;20028;-62
2023/04/18 08:12:59;;;;;;;10.27;5.70;;;10.10;99.90;;;;;;5089490;28;20020;-63
2023/04/18 08:15:26;;;;;;;8.57;5.53;;;10.00;99.90;;;;;;5089434;28;20111;-63
2023/04/18 08:17:52;;;;;;;9.65;5.93;;;9.90;99.90;;;;;;5090645;28;20035;-63
2023/04/18 08:20:18;;;;;;;8.50;5.47;;;10.00;99.90;;;;;;5090148;28;20019;-63
2023/04/18 08:22:44;;;;;;;10.52;5.90;;;10.10;99.90;;;;;;5091162;28;20028;-63
2023/04/18 08:25:09;;;;;;;10.27;5.60;;;10.20;99.90;;;;;;5090289;28;20019;-62
2023/04/18 08:27:35;;;;;;;9.38;5.55;;;10.10;99.90;;;;;;5092764;28;20030;-63
2023/04/18 08:30:02;;;;;;;9.27;5.38;;;10.20;99.90;;;;;;5093423;28;20396;-62
2023/04/18 08:32:28;;;;;;;10.30;5.60;;;10.10;99.90;;;;;;5094124;28;20526;-62
2023/04/18 08:34:55;;;;;;;8.45;5.07;;;10.20;99.90;;;;;;5094068;28;20028;-62
2023/04/18 08:37:20;;;;;;;11.73;6.38;;;10.30;99.90;;;;;;5093919;28;20032;-64
2023/04/18 08:39:46;;;;;;;9.77;5.38;;;10.30;99.90;;;;;;5093854;28;20016;-62
2023/04/18 08:42:18;;;;;;;9.52;5.55;;;10.50;99.90;;;;;;5092893;28;20020;-62
2023/04/18 08:44:45;;;;;;;8.60;5.28;;;10.60;99.90;;;;;;5093481;28;20076;-62
2023/04/18 08:47:11;;;;;;;8.75;4.82;;;10.60;99.90;;;;;;5093917;28;20472;-62
2023/04/18 08:49:37;;;;;;;7.82;4.50;;;10.70;99.90;;;;;;5092865;28;20016;-63
2023/04/18 08:52:15;;;;;;;8.40;4.95;;;10.80;99.90;;;;;;5093710;28;20020;-63
2023/04/18 08:54:41;;;;;;;8.10;5.05;;;10.80;99.90;;;;;;5093401;28;20046;-62
2023/04/18 08:57:15;;;;;;;9.60;5.18;;;10.80;99.90;;;;;;5092523;28;20024;-62
2023/04/18 08:59:44;;;;;;;8.10;4.60;;;10.90;99.90;;;;;;5093513;28;20461;-63
2023/04/18 09:02:10;;;;;;;11.23;5.40;;;11.00;99.90;;;;;;5093573;28;20020;-63
2023/04/18 09:04:44;;;;;;;8.63;4.95;;;11.00;99.90;;;;;;5093601;28;20051;-62
2023/04/18 09:07:12;;;;;;;8.00;4.72;;;11.00;99.90;;;;;;5093846;28;20016;-63
2023/04/18 09:09:52;;;;;;;8.70;4.97;;;11.00;99.90;;;;;;5092610;28;20020;-63
2023/04/18 09:12:21;;;;;;;9.98;4.90;;;11.00;99.90;;;;;;5093741;28;20028;-63
2023/04/18 09:14:52;;;;;;;14.68;5.30;;;10.90;99.90;;;;;;5092817;28;20473;-63
2023/04/18 09:17:32;;;;;;;10.00;5.18;;;10.90;99.90;;;;;;5092805;28;20036;-63
2023/04/18 09:19:59;;;;;;;10.43;4.83;;;11.00;99.90;;;;;;5092009;28;20020;-63
2023/04/18 09:22:25;;;;;;;11.13;6.13;;;10.90;99.90;;;;;;5093537;28;20028;-64
2023/04/18 09:24:56;;;;;;;8.07;5.00;;;11.00;99.90;;;;;;5092931;28;20025;-63
2023/04/18 09:27:23;;;;;;;7.57;4.47;;;11.00;99.90;;;;;;5093589;28;20024;-63
2023/04/18 09:29:53;;;;;;;8.57;4.65;;;11.10;99.90;;;;;;5092286;28;20024;-63
2023/04/18 09:32:25;;;;;;;7.93;4.75;;;11.20;99.90;;;;;;5093306;28;20046;-64
2023/04/18 09:35:00;;;;;;;8.35;4.78;;;11.30;99.90;;;;;;5093383;28;20024;-63
2023/04/18 09:37:27;;;;;;;10.27;6.10;;;11.40;99.90;;;;;;5092506;28;20031;-63
2023/04/18 09:39:53;;;;;;;8.23;5.30;;;11.40;99.90;;;;;;5093251;28;20035;-63
2023/04/18 09:42:19;;;;;;;7.95;5.38;;;11.40;99.90;;;;;;5091808;28;20012;-63
2023/04/18 09:45:06;;;;;;;10.27;5.57;;;11.50;99.90;;;;;;5092024;28;20085;-64
2023/04/18 09:47:35;;;;;;;8.68;5.13;;;11.60;99.90;;;;;;5091373;28;20026;-63
2023/04/18 09:50:10;;;;;;;8.52;5.78;;;11.80;99.90;;;;;;5092497;28;20028;-63
2023/04/18 09:52:37;;;;;;;10.43;5.40;;;12.00;99.90;;;;;;5092253;28;20024;-64
2023/04/18 09:55:06;;;;;;;8.23;5.68;;;12.10;99.90;;;;;;5093112;28;20020;-63
2023/04/18 09:57:34;;;;;;;9.10;5.40;;;12.20;99.90;;;;;;5092297;28;20422;-63
2023/04/18 10:00:20;;;;;;;9.23;5.00;;;12.40;99.90;;;;;;5091621;28;20099;-63
2023/04/18 10:02:55;;;;;;;8.02;4.88;;;12.50;99.90;;;;;;5090306;28;20035;-63
2023/04/18 10:05:24;;;;;;;7.15;5.07;;;12.60;99.90;;;;;;5089586;28;20044;-64
2023/04/18 10:07:51;;;;;;;9.18;5.45;;;12.80;99.90;;;;;;5072565;28;20025;-63
2023/04/18 10:10:16;;;;;;;9.73;5.70;;;12.80;99.80;;;;;;5079849;28;20464;-63
2023/04/18 10:12:43;;;;;;;10.88;6.28;;;12.80;99.90;;;;;;5091826;28;20032;-63
2023/04/18 10:15:10;;;;;;;8.95;5.20;;;12.90;99.90;;;;;;5092956;28;20023;-64
2023/04/18 10:17:44;;;;;;;9.32;5.25;;;13.00;99.90;;;;;;5092024;28;20050;-64
2023/04/18 10:20:16;;;;;;;9.00;6.00;;;13.20;99.90;;;;;;5091945;28;20028;-63
2023/04/18 10:22:42;;;;;;;10.32;5.75;;;13.40;99.50;;;;;;5092444;28;20091;-62
2023/04/18 10:25:08;;;;;;;8.20;5.40;;;13.40;98.40;;;;;;5092566;28;20361;-63
2023/04/18 10:27:56;;;;;;;9.20;5.68;;;13.40;98.70;;;;;;5090116;28;20077;-63
2023/04/18 10:30:45;;;;;;;11.68;5.47;;;13.30;98.90;;;;;;5091347;28;20056;-63
2023/04/18 10:33:25;;;;;;;9.30;5.22;;;13.20;97.60;;;;;;5091714;28;20031;-62
2023/04/18 10:36:08;;;;;;;8.93;5.38;;;13.00;97.70;;;;;;5090667;28;20024;-62
2023/04/18 10:38:37;;;;;;;9.65;5.75;;;13.00;98.00;;;;;;5092116;28;20098;-62
2023/04/18 10:41:18;;;;;;;9.75;6.18;;;12.90;98.20;;;;;;5091462;28;20390;-62
2023/04/18 10:44:09;;;;;;;10.15;6.38;;;12.90;98.20;;;;;;5091605;28;20376;-62
2023/04/18 10:46:35;;;;;;;9.88;5.82;;;13.00;97.80;;;;;;5091774;28;20035;-62
2023/04/18 10:49:17;;;;;;;10.73;6.43;;;13.10;97.50;;;;;;5089991;28;20452;-62
2023/04/18 10:51:44;;;;;;;9.50;6.70;;;13.10;97.60;;;;;;5089334;28;20024;-63
2023/04/18 10:54:30;;;;;;;9.68;5.85;;;13.20;98.20;;;;;;5090671;28;20028;-63
2023/04/18 10:57:00;;;;;;;11.40;5.88;;;13.30;97.30;;;;;;5091652;28;20074;-63
2023/04/18 10:59:28;;;;;;;9.75;5.90;;;13.30;96.70;;;;;;5091440;28;20016;-62
2023/04/18 11:02:12;;;;;;;11.45;6.43;;;13.40;96.10;;;;;;5090194;28;20024;-62
2023/04/18 11:04:39;;;;;;;12.15;6.68;;;13.40;96.70;;;;;;5089716;28;20431;-63
2023/04/18 11:07:05;;;;;;;12.07;6.43;;;13.40;96.50;;;;;;5089972;28;20575;-61
2023/04/18 11:09:31;;;;;;;10.85;6.82;;;13.40;95.70;;;;;;5090562;28;20072;-62
2023/04/18 11:12:10;;;;;;;11.02;6.82;;;13.30;97.30;;;;;;5091581;28;20524;-62
2023/04/18 11:14:44;;;;;;;10.20;6.25;;;13.40;96.40;;;;;;5091150;28;20016;-62
2023/04/18 11:17:19;;;;;;;10.13;6.00;;;13.40;96.00;;;;;;5088967;28;20056;-63
2023/04/18 11:19:46;;;;;;;10.70;6.88;;;13.40;96.30;;;;;;5091207;28;20025;-63
2023/04/18 11:22:12;;;;;;;10.90;6.85;;;13.40;96.50;;;;;;5090773;28;20047;-63
2023/04/18 11:24:38;;;;;;;13.70;7.57;;;13.40;96.00;;;;;;5091742;28;20021;-62
2023/04/18 11:27:04;;;;;;;11.35;7.38;;;13.30;96.80;;;;;;5091673;28;20020;-63
2023/04/18 11:29:29;;;;;;;10.52;7.07;;;13.40;97.00;;;;;;5090813;28;21008;-62
2023/04/18 11:31:55;;;;;;;9.88;6.63;;;13.50;97.20;;;;;;5090861;28;20035;-62
2023/04/18 11:34:21;;;;;;;12.73;7.63;;;13.50;96.90;;;;;;5091578;28;20030;-64
2023/04/18 11:36:50;;;;;;;15.90;7.72;;;13.50;96.50;;;;;;5090528;28;20028;-62
2023/04/18 11:39:17;;;;;;;11.48;7.63;;;13.60;96.60;;;;;;5091167;28;20112;-63
2023/04/18 11:41:49;;;;;;;11.43;7.40;;;13.70;97.40;;;;;;5090739;28;20031;-64
2023/04/18 11:44:16;;;;;;;10.95;6.93;;;13.90;96.80;;;;;;5090485;28;20034;-64
2023/04/18 11:46:43;;;;;;;11.82;7.90;;;14.00;97.40;;;;;;5090922;28;20043;-65
2023/04/18 11:49:27;;;;;;;12.02;8.40;;;14.10;96.60;;;;;;5089856;28;20031;-63
2023/04/18 11:51:52;;;;;;;12.30;8.70;;;14.20;95.50;;;;;;5090161;28;20061;-62
2023/04/18 11:54:37;;;;;;;12.98;8.23;;;14.20;96.00;;;;;;5091744;28;20103;-64
2023/04/18 11:57:04;;;;;;;13.80;8.40;;;14.20;95.70;;;;;;5090004;28;20029;-63
2023/04/18 11:59:29;;;;;;;11.63;7.88;;;14.10;95.70;;;;;;5089996;28;20103;-63
2023/04/18 12:02:00;;;;;;;13.32;8.15;;;14.20;96.00;;;;;;5093827;28;20107;-64
2023/04/18 12:04:26;;;;;;;14.13;8.90;;;14.20;95.70;;;;;;5092969;28;20440;-63
2023/04/18 12:06:52;;;;;;;13.48;8.65;;;14.30;95.90;;;;;;5094806;28;20067;-63
2023/04/18 12:09:21;;;;;;;12.93;8.75;;;14.40;95.90;;;;;;5094913;28;20047;-63
2023/04/18 12:12:00;;;;;;;11.82;7.75;;;14.50;95.60;;;;;;5093516;28;20051;-63
2023/04/18 12:14:27;;;;;;;14.18;9.23;;;14.50;95.50;;;;;;5094536;28;20020;-64
2023/04/18 12:16:52;;;;;;;14.27;9.20;;;14.50;95.30;;;;;;5093347;28;20077;-64
2023/04/18 12:19:22;;;;;;;14.90;9.30;;;14.50;94.80;;;;;;5093927;28;20020;-62
2023/04/18 12:22:05;;;;;;;13.23;8.70;;;14.40;95.20;;;;;;5094230;28;20024;-62
2023/04/18 12:24:31;;;;;;;17.05;9.80;;;14.30;94.60;;;;;;5094781;28;20027;-62
2023/04/18 12:27:00;;;;;;;14.95;9.30;;;14.30;94.80;;;;;;5094373;28;20028;-62
2023/04/18 12:29:27;;;;;;;14.60;9.45;;;14.30;94.60;;;;;;5094770;28;20030;-62
2023/04/18 12:31:53;;;;;;;13.85;9.05;;;14.30;94.60;;;;;;5094264;28;20035;-62
2023/04/18 12:34:19;;;;;;;15.73;10.55;;;14.30;94.50;;;;;;5092276;28;20388;-62
2023/04/18 12:36:45;;;;;;;15.75;10.10;;;14.40;94.60;;;;;;5094456;28;20032;-62
2023/04/18 12:39:11;;;;;;;14.57;9.85;;;14.40;94.90;;;;;;5093173;28;20020;-63
2023/04/18 12:41:37;;;;;;;16.58;9.65;;;14.30;93.80;;;;;;5093086;28;20032;-62
2023/04/18 12:44:03;;;;;;;14.38;9.63;;;14.30;94.20;;;;;;5094024;28;20103;-62
2023/04/18 12:46:28;;;;;;;14.75;9.85;;;14.20;94.20;;;;;;5093844;28;20024;-62